sensor_id;sensor_type;location;lat;lon;timestamp;pressure;altitude;pressure_sealevel;temperature;humidity
6389;BME280;3227;42.654;23.360;2022-10-17T00:01:03;95728.31;;;9.88;77.30
6389;BME280;3227;42.654;23.360;2022-10-17T00:03:29;95699.78;;;9.70;77.78
6389;BME280;3227;42.654;23.360;2022-10-17T00:05:58;95724.97;;;9.91;77.49
6389;BME280;3227;42.654;23.360;2022-10-17T00:08:24;95725.78;;;9.90;77.81
6389;BME280;3227;42.654;23.360;2022-10-17T00:10:56;95722.44;;;9.92;77.76
6389;BME280;3227;42.654;23.360;2022-10-17T00:13:23;95724.13;;;9.92;77.15
6389;BME280;3227;42.654;23.360;2022-10-17T00:15:50;95726.66;;;9.90;77.22
6389;BME280;3227;42.654;23.360;2022-10-17T00:18:17;95712.00;;;9.83;77.33
6389;BME280;3227;42.654;23.360;2022-10-17T00:20:44;95726.66;;;9.90;77.34
6389;BME280;3227;42.654;23.360;2022-10-17T00:23:12;95728.34;;;9.90;77.23
6389;BME280;3227;42.654;23.360;2022-10-17T00:25:38;95730.88;;;9.88;77.54
6389;BME280;3227;42.654;23.360;2022-10-17T00:28:07;95730.16;;;9.94;77.13
6389;BME280;3227;42.654;23.360;2022-10-17T00:30:35;95721.44;;;9.86;76.65
6389;BME280;3227;42.654;23.360;2022-10-17T00:33:02;95717.03;;;9.80;76.63
6389;BME280;3227;42.654;23.360;2022-10-17T00:35:29;95727.28;;;9.80;76.66
6389;BME280;3227;42.654;23.360;2022-10-17T00:37:56;95705.53;;;9.60;76.90
6389;BME280;3227;42.654;23.360;2022-10-17T00:40:24;95727.16;;;9.74;77.00
6389;BME280;3227;42.654;23.360;2022-10-17T00:42:51;95733.88;;;9.69;78.14
6389;BME280;3227;42.654;23.360;2022-10-17T00:45:22;95733.84;;;9.68;77.76
6389;BME280;3227;42.654;23.360;2022-10-17T00:47:52;95737.31;;;9.70;77.38
6389;BME280;3227;42.654;23.360;2022-10-17T00:50:21;95739.03;;;9.72;76.94
6389;BME280;3227;42.654;23.360;2022-10-17T00:52:49;95733.09;;;9.73;76.18
6389;BME280;3227;42.654;23.360;2022-10-17T00:55:20;95727.81;;;9.66;76.07
6389;BME280;3227;42.654;23.360;2022-10-17T00:57:48;95708.66;;;9.47;75.63
6389;BME280;3227;42.654;23.360;2022-10-17T01:00:16;95731.81;;;9.53;76.27
6389;BME280;3227;42.654;23.360;2022-10-17T01:02:44;95731.66;;;9.47;77.20
6389;BME280;3227;42.654;23.360;2022-10-17T01:05:11;95739.34;;;9.48;77.38
6389;BME280;3227;42.654;23.360;2022-10-17T01:07:38;95727.19;;;9.38;77.46
6389;BME280;3227;42.654;23.360;2022-10-17T01:10:07;95734.84;;;9.37;77.79
6389;BME280;3227;42.654;23.360;2022-10-17T01:12:43;95729.72;;;9.37;77.97
6389;BME280;3227;42.654;23.360;2022-10-17T01:15:24;95696.63;;;9.08;78.01
6389;BME280;3227;42.654;23.360;2022-10-17T01:18:03;95735.56;;;9.33;78.02
6389;BME280;3227;42.654;23.360;2022-10-17T01:21:06;95736.41;;;9.32;78.11
6389;BME280;3227;42.654;23.360;2022-10-17T01:23:58;95731.28;;;9.32;78.03
6389;BME280;3227;42.654;23.360;2022-10-17T01:26:42;95733.84;;;9.32;77.61
6389;BME280;3227;42.654;23.360;2022-10-17T01:29:27;95728.69;;;9.29;77.86
6389;BME280;3227;42.654;23.360;2022-10-17T01:32:01;95735.47;;;9.28;77.89
6389;BME280;3227;42.654;23.360;2022-10-17T01:34:31;95737.22;;;9.29;77.74
6389;BME280;3227;42.654;23.360;2022-10-17T01:37:04;95706.00;;;9.08;77.87
6389;BME280;3227;42.654;23.360;2022-10-17T01:39:38;95737.91;;;9.22;78.09
6389;BME280;3227;42.654;23.360;2022-10-17T01:42:12;95733.59;;;9.21;77.96
6389;BME280;3227;42.654;23.360;2022-10-17T01:44:47;95545.84;;;8.05;78.42
6389;BME280;3227;42.654;23.360;2022-10-17T01:47:19;95737.78;;;9.18;78.28
6389;BME280;3227;42.654;23.360;2022-10-17T01:49:49;95744.69;;;9.22;77.94
6389;BME280;3227;42.654;23.360;2022-10-17T01:52:20;95746.41;;;9.23;78.37
6389;BME280;3227;42.654;23.360;2022-10-17T01:54:51;95746.34;;;9.20;78.11
6389;BME280;3227;42.654;23.360;2022-10-17T01:57:23;95741.25;;;9.20;78.17
6389;BME280;3227;42.654;23.360;2022-10-17T01:59:54;95744.63;;;9.19;78.62
6389;BME280;3227;42.654;23.360;2022-10-17T02:02:24;95748.97;;;9.23;78.12
6389;BME280;3227;42.654;23.360;2022-10-17T02:04:54;95748.31;;;9.30;78.25
6389;BME280;3227;42.654;23.360;2022-10-17T02:07:22;95754.31;;;9.32;78.15
6389;BME280;3227;42.654;23.360;2022-10-17T02:09:49;95744.97;;;9.34;77.14
6389;BME280;3227;42.654;23.360;2022-10-17T02:12:32;95756.91;;;9.33;77.10
6389;BME280;3227;42.654;23.360;2022-10-17T02:18:14;95727.41;;;9.11;77.36
6389;BME280;3227;42.654;23.360;2022-10-17T02:20:49;95755.00;;;9.25;77.18
6389;BME280;3227;42.654;23.360;2022-10-17T02:23:23;95760.03;;;9.22;76.96
6389;BME280;3227;42.654;23.360;2022-10-17T02:25:59;95756.50;;;9.16;77.40
6389;BME280;3227;42.654;23.360;2022-10-17T02:28:32;95734.00;;;9.03;77.50
6389;BME280;3227;42.654;23.360;2022-10-17T02:31:07;95748.72;;;9.12;77.08
6389;BME280;3227;42.654;23.360;2022-10-17T02:33:41;95761.69;;;9.20;77.12
6389;BME280;3227;42.654;23.360;2022-10-17T02:36:13;95765.00;;;9.15;76.96
6389;BME280;3227;42.654;23.360;2022-10-17T02:38:41;95741.66;;;9.02;77.38
6389;BME280;3227;42.654;23.360;2022-10-17T02:41:10;95769.28;;;9.16;77.37
6389;BME280;3227;42.654;23.360;2022-10-17T02:43:39;95769.31;;;9.18;77.46
6389;BME280;3227;42.654;23.360;2022-10-17T02:46:10;95742.50;;;9.02;76.71
6389;BME280;3227;42.654;23.360;2022-10-17T02:48:48;95771.06;;;9.19;77.10
6389;BME280;3227;42.654;23.360;2022-10-17T02:51:23;95714.75;;;8.83;77.22
6389;BME280;3227;42.654;23.360;2022-10-17T02:53:57;95783.94;;;9.22;76.87
6389;BME280;3227;42.654;23.360;2022-10-17T02:56:29;95787.28;;;9.20;77.06
6389;BME280;3227;42.654;23.360;2022-10-17T02:59:00;95781.25;;;9.18;77.01
6389;BME280;3227;42.654;23.360;2022-10-17T03:01:29;95785.53;;;9.19;77.38
6389;BME280;3227;42.654;23.360;2022-10-17T03:04:09;95790.56;;;9.15;77.42
6389;BME280;3227;42.654;23.360;2022-10-17T03:06:47;95791.19;;;9.07;78.00
6389;BME280;3227;42.654;23.360;2022-10-17T03:09:15;95773.72;;;8.91;78.40
6389;BME280;3227;42.654;23.360;2022-10-17T03:11:42;95798.81;;;9.04;78.40
6389;BME280;3227;42.654;23.360;2022-10-17T03:14:08;95795.38;;;9.03;78.44
6389;BME280;3227;42.654;23.360;2022-10-17T03:16:35;95801.34;;;9.04;78.29
6389;BME280;3227;42.654;23.360;2022-10-17T03:19:02;95805.59;;;9.03;78.36
6389;BME280;3227;42.654;23.360;2022-10-17T03:21:30;95794.47;;;9.01;78.76
6389;BME280;3227;42.654;23.360;2022-10-17T03:23:57;95793.56;;;8.99;78.52
6389;BME280;3227;42.654;23.360;2022-10-17T03:26:24;95799.47;;;8.97;79.07
6389;BME280;3227;42.654;23.360;2022-10-17T03:28:51;95799.47;;;8.97;78.96
6389;BME280;3227;42.654;23.360;2022-10-17T03:31:18;95801.06;;;8.93;79.07
6389;BME280;3227;42.654;23.360;2022-10-17T03:33:44;95792.44;;;8.88;78.95
6389;BME280;3227;42.654;23.360;2022-10-17T03:36:13;95790.44;;;8.78;79.30
6389;BME280;3227;42.654;23.360;2022-10-17T03:38:42;95800.66;;;8.78;79.30
6389;BME280;3227;42.654;23.360;2022-10-17T03:41:09;95802.34;;;8.77;78.94
6389;BME280;3227;42.654;23.360;2022-10-17T03:43:36;95805.63;;;8.73;78.97
6389;BME280;3227;42.654;23.360;2022-10-17T03:46:03;95805.56;;;8.70;79.25
6389;BME280;3227;42.654;23.360;2022-10-17T03:48:31;95807.25;;;8.70;79.18
6389;BME280;3227;42.654;23.360;2022-10-17T03:50:59;95807.25;;;8.70;79.40
6389;BME280;3227;42.654;23.360;2022-10-17T03:53:27;95801.91;;;8.61;79.46
6389;BME280;3227;42.654;23.360;2022-10-17T03:55:55;95818.19;;;8.64;79.80
6389;BME280;3227;42.654;23.360;2022-10-17T03:58:22;95816.44;;;8.63;79.66
6389;BME280;3227;42.654;23.360;2022-10-17T04:00:49;95813.03;;;8.63;79.48
6389;BME280;3227;42.654;23.360;2022-10-17T04:03:16;95791.31;;;8.47;79.72
6389;BME280;3227;42.654;23.360;2022-10-17T04:05:43;95817.94;;;8.57;79.41
6389;BME280;3227;42.654;23.360;2022-10-17T04:08:10;95811.84;;;8.52;79.40
6389;BME280;3227;42.654;23.360;2022-10-17T04:10:37;95825.41;;;8.49;79.86
6389;BME280;3227;42.654;23.360;2022-10-17T04:13:05;95822.63;;;8.42;79.95
6389;BME280;3227;42.654;23.360;2022-10-17T04:15:31;95819.19;;;8.39;79.91
6389;BME280;3227;42.654;23.360;2022-10-17T04:17:58;95831.03;;;8.37;79.87
6389;BME280;3227;42.654;23.360;2022-10-17T04:20:25;95826.81;;;8.38;80.45
6389;BME280;3227;42.654;23.360;2022-10-17T04:22:52;95821.53;;;8.33;80.19
6389;BME280;3227;42.654;23.360;2022-10-17T04:25:19;95805.75;;;8.18;80.40
6389;BME280;3227;42.654;23.360;2022-10-17T04:27:45;95830.72;;;8.28;80.26
6389;BME280;3227;42.654;23.360;2022-10-17T04:30:15;95824.66;;;8.25;80.55
6389;BME280;3227;42.654;23.360;2022-10-17T04:32:41;95833.13;;;8.24;80.61
6389;BME280;3227;42.654;23.360;2022-10-17T04:35:08;95835.56;;;8.19;80.78
6389;BME280;3227;42.654;23.360;2022-10-17T04:37:35;95823.56;;;8.15;80.98
6389;BME280;3227;42.654;23.360;2022-10-17T04:40:02;95837.03;;;8.11;81.01
6389;BME280;3227;42.654;23.360;2022-10-17T04:42:29;95833.75;;;8.15;80.99
6389;BME280;3227;42.654;23.360;2022-10-17T04:44:56;95823.28;;;8.06;80.69
6389;BME280;3227;42.654;23.360;2022-10-17T04:47:24;95840.41;;;8.10;80.90
6389;BME280;3227;42.654;23.360;2022-10-17T04:49:51;95839.63;;;8.13;80.84
6389;BME280;3227;42.654;23.360;2022-10-17T04:52:17;95838.00;;;8.15;80.96
6389;BME280;3227;42.654;23.360;2022-10-17T04:54:44;95834.56;;;8.14;80.67
6389;BME280;3227;42.654;23.360;2022-10-17T04:57:11;95839.69;;;8.14;80.39
6389;BME280;3227;42.654;23.360;2022-10-17T04:59:38;95845.25;;;8.29;81.00
6389;BME280;3227;42.654;23.360;2022-10-17T05:02:05;95837.41;;;8.52;80.17
6389;BME280;3227;42.654;23.360;2022-10-17T05:04:39;95845.25;;;8.88;78.70
6389;BME280;3227;42.654;23.360;2022-10-17T05:07:21;95831.13;;;9.02;76.56
6389;BME280;3227;42.654;23.360;2022-10-17T05:09:48;95845.41;;;9.27;75.13
6389;BME280;3227;42.654;23.360;2022-10-17T05:12:14;95854.38;;;9.44;74.47
6389;BME280;3227;42.654;23.360;2022-10-17T05:14:41;95854.88;;;9.64;73.94
6389;BME280;3227;42.654;23.360;2022-10-17T05:17:08;95854.22;;;9.72;72.80
6389;BME280;3227;42.654;23.360;2022-10-17T05:19:35;95869.31;;;9.96;72.28
6389;BME280;3227;42.654;23.360;2022-10-17T05:22:03;95861.13;;;10.11;70.92
6389;BME280;3227;42.654;23.360;2022-10-17T05:24:30;95855.56;;;10.27;70.31
6389;BME280;3227;42.654;23.360;2022-10-17T05:26:56;95875.50;;;10.42;69.75
6389;BME280;3227;42.654;23.360;2022-10-17T05:29:23;95873.41;;;10.63;69.38
6389;BME280;3227;42.654;23.360;2022-10-17T05:31:50;95876.53;;;10.90;68.00
6389;BME280;3227;42.654;23.360;2022-10-17T05:34:17;95881.38;;;11.19;67.39
6389;BME280;3227;42.654;23.360;2022-10-17T05:36:44;95874.94;;;11.40;65.76
6389;BME280;3227;42.654;23.360;2022-10-17T05:39:12;95877.13;;;11.67;65.42
6389;BME280;3227;42.654;23.360;2022-10-17T05:41:43;95887.00;;;11.94;64.56
6389;BME280;3227;42.654;23.360;2022-10-17T05:44:10;95880.56;;;12.17;62.72
6389;BME280;3227;42.654;23.360;2022-10-17T05:46:37;95888.53;;;12.37;62.44
6389;BME280;3227;42.654;23.360;2022-10-17T05:49:04;95886.13;;;12.48;62.69
6389;BME280;3227;42.654;23.360;2022-10-17T05:51:32;95857.78;;;12.45;62.05
6389;BME280;3227;42.654;23.360;2022-10-17T05:53:59;95893.28;;;12.70;62.04
6389;BME280;3227;42.654;23.360;2022-10-17T05:56:27;95887.50;;;12.86;61.19
6389;BME280;3227;42.654;23.360;2022-10-17T05:58:54;95879.03;;;12.95;60.01
6389;BME280;3227;42.654;23.360;2022-10-17T06:01:20;95875.53;;;12.88;58.80
6389;BME280;3227;42.654;23.360;2022-10-17T06:03:48;95901.41;;;12.99;59.22
6389;BME280;3227;42.654;23.360;2022-10-17T06:06:16;95913.00;;;12.68;59.44
6389;BME280;3227;42.654;23.360;2022-10-17T06:08:43;95905.28;;;12.68;60.50
6389;BME280;3227;42.654;23.360;2022-10-17T06:11:11;95916.41;;;12.69;61.16
6389;BME280;3227;42.654;23.360;2022-10-17T06:13:39;95910.78;;;12.34;61.69
6389;BME280;3227;42.654;23.360;2022-10-17T06:16:06;95879.47;;;12.05;62.36
6389;BME280;3227;42.654;23.360;2022-10-17T06:18:33;95912.53;;;12.38;61.94
6389;BME280;3227;42.654;23.360;2022-10-17T06:21:02;95891.22;;;12.45;61.05
6389;BME280;3227;42.654;23.360;2022-10-17T06:23:29;95929.41;;;12.76;61.41
6389;BME280;3227;42.654;23.360;2022-10-17T06:25:58;95932.25;;;12.98;61.24
6389;BME280;3227;42.654;23.360;2022-10-17T06:28:25;95906.50;;;12.96;59.83
6389;BME280;3227;42.654;23.360;2022-10-17T06:30:53;95823.72;;;12.58;60.00
6389;BME280;3227;42.654;23.360;2022-10-17T06:33:20;95936.38;;;13.54;59.16
6389;BME280;3227;42.654;23.360;2022-10-17T06:35:50;95937.44;;;13.71;58.46
6389;BME280;3227;42.654;23.360;2022-10-17T06:38:17;95936.78;;;13.91;57.56
6389;BME280;3227;42.654;23.360;2022-10-17T06:40:43;95883.38;;;13.75;57.09
6389;BME280;3227;42.654;23.360;2022-10-17T06:43:10;95943.03;;;14.19;57.27
6389;BME280;3227;42.654;23.360;2022-10-17T06:45:37;95944.81;;;14.24;56.81
6389;BME280;3227;42.654;23.360;2022-10-17T06:48:06;95940.66;;;14.40;59.22
6389;BME280;3227;42.654;23.360;2022-10-17T06:50:33;95912.19;;;14.31;56.19
6389;BME280;3227;42.654;23.360;2022-10-17T06:53:00;95939.00;;;14.48;55.77
6389;BME280;3227;42.654;23.360;2022-10-17T06:55:27;95941.59;;;14.51;57.81
6389;BME280;3227;42.654;23.360;2022-10-17T06:57:55;95943.44;;;14.64;56.58
6389;BME280;3227;42.654;23.360;2022-10-17T07:00:22;95941.75;;;14.75;55.71
6389;BME280;3227;42.654;23.360;2022-10-17T07:02:51;95946.97;;;14.83;56.25
6389;BME280;3227;42.654;23.360;2022-10-17T07:05:19;95940.13;;;14.93;55.15
6389;BME280;3227;42.654;23.360;2022-10-17T07:07:46;95938.44;;;14.93;56.09
6389;BME280;3227;42.654;23.360;2022-10-17T07:10:12;95940.22;;;15.03;55.83
6389;BME280;3227;42.654;23.360;2022-10-17T07:12:39;95940.22;;;15.09;55.81
6389;BME280;3227;42.654;23.360;2022-10-17T07:15:07;95946.28;;;15.13;54.62
6389;BME280;3227;42.654;23.360;2022-10-17T07:17:34;95948.00;;;15.17;53.94
6389;BME280;3227;42.654;23.360;2022-10-17T07:20:01;95938.53;;;15.11;53.02
6389;BME280;3227;42.654;23.360;2022-10-17T07:22:29;95941.94;;;15.07;54.21
6389;BME280;3227;42.654;23.360;2022-10-17T07:24:56;95946.31;;;15.14;54.49
6389;BME280;3227;42.654;23.360;2022-10-17T07:27:22;95951.47;;;15.19;54.69
6389;BME280;3227;42.654;23.360;2022-10-17T07:29:49;95945.44;;;15.17;55.11
6389;BME280;3227;42.654;23.360;2022-10-17T07:32:16;95946.31;;;15.19;53.98
6389;BME280;3227;42.654;23.360;2022-10-17T07:34:43;95945.41;;;15.09;54.44
6389;BME280;3227;42.654;23.360;2022-10-17T07:37:15;95954.03;;;15.13;54.54
6389;BME280;3227;42.654;23.360;2022-10-17T07:39:43;95956.66;;;15.20;53.41
6389;BME280;3227;42.654;23.360;2022-10-17T07:42:10;95955.75;;;15.14;53.21
6389;BME280;3227;42.654;23.360;2022-10-17T07:44:38;95954.72;;;14.86;53.91
6389;BME280;3227;42.654;23.360;2022-10-17T07:47:05;95954.69;;;14.83;56.11
6389;BME280;3227;42.654;23.360;2022-10-17T07:49:32;95948.84;;;15.07;56.45
6389;BME280;3227;42.654;23.360;2022-10-17T07:51:59;95965.31;;;15.30;54.28
6389;BME280;3227;42.654;23.360;2022-10-17T07:54:25;95951.53;;;15.33;54.10
6389;BME280;3227;42.654;23.360;2022-10-17T07:56:54;95942.91;;;15.23;55.76
6389;BME280;3227;42.654;23.360;2022-10-17T07:59:21;95959.31;;;15.42;54.70
6389;BME280;3227;42.654;23.360;2022-10-17T08:01:48;95956.84;;;15.66;55.28
6389;BME280;3227;42.654;23.360;2022-10-17T08:04:15;95857.59;;;15.08;53.18
6389;BME280;3227;42.654;23.360;2022-10-17T08:06:42;95914.56;;;15.40;53.89
6389;BME280;3227;42.654;23.360;2022-10-17T08:09:09;95944.78;;;15.56;52.67
6389;BME280;3227;42.654;23.360;2022-10-17T08:11:36;95942.19;;;15.56;52.64
6389;BME280;3227;42.654;23.360;2022-10-17T08:14:04;95943.06;;;15.61;52.74
6389;BME280;3227;42.654;23.360;2022-10-17T08:16:31;95944.78;;;15.65;54.37
6389;BME280;3227;42.654;23.360;2022-10-17T08:18:58;95942.25;;;15.80;53.30
6389;BME280;3227;42.654;23.360;2022-10-17T08:21:25;95937.13;;;16.02;54.16
6389;BME280;3227;42.654;23.360;2022-10-17T08:23:52;95901.75;;;15.91;51.73
6389;BME280;3227;42.654;23.360;2022-10-17T08:26:19;95931.06;;;15.86;51.05
6389;BME280;3227;42.654;23.360;2022-10-17T08:28:46;95932.72;;;15.66;50.91
6389;BME280;3227;42.654;23.360;2022-10-17T08:31:15;95941.34;;;15.60;51.52
6389;BME280;3227;42.654;23.360;2022-10-17T08:33:44;95936.19;;;15.75;52.03
6389;BME280;3227;42.654;23.360;2022-10-17T08:36:12;95904.31;;;15.67;52.18
6389;BME280;3227;42.654;23.360;2022-10-17T08:38:40;95942.28;;;15.98;50.97
6389;BME280;3227;42.654;23.360;2022-10-17T08:41:19;95937.13;;;16.08;50.71
6389;BME280;3227;42.654;23.360;2022-10-17T08:43:58;95933.69;;;16.21;50.06
6389;BME280;3227;42.654;23.360;2022-10-17T08:46:32;95921.63;;;16.14;50.09
6389;BME280;3227;42.654;23.360;2022-10-17T08:49:02;95934.53;;;16.03;49.10
6389;BME280;3227;42.654;23.360;2022-10-17T08:51:32;95931.94;;;15.92;48.98
6389;BME280;3227;42.654;23.360;2022-10-17T08:54:05;95939.72;;;16.05;49.74
6389;BME280;3227;42.654;23.360;2022-10-17T08:56:42;95909.50;;;15.78;49.83
6389;BME280;3227;42.654;23.360;2022-10-17T08:59:11;95942.28;;;15.98;49.53
6389;BME280;3227;42.654;23.360;2022-10-17T09:01:45;95942.25;;;15.79;49.85
6389;BME280;3227;42.654;23.360;2022-10-17T09:04:33;95945.72;;;15.91;50.01
6389;BME280;3227;42.654;23.360;2022-10-17T09:07:09;95937.09;;;15.98;49.79
6389;BME280;3227;42.654;23.360;2022-10-17T09:09:42;95946.63;;;16.12;47.75
6389;BME280;3227;42.654;23.360;2022-10-17T09:12:16;95946.59;;;16.10;46.37
6389;BME280;3227;42.654;23.360;2022-10-17T09:15:35;95946.56;;;15.90;45.76
6389;BME280;3227;42.654;23.360;2022-10-17T09:18:10;95943.16;;;16.11;46.49
6389;BME280;3227;42.654;23.360;2022-10-17T09:20:41;95943.19;;;16.35;47.12
6389;BME280;3227;42.654;23.360;2022-10-17T09:23:12;95949.22;;;16.42;46.18
6389;BME280;3227;42.654;23.360;2022-10-17T09:25:42;95886.25;;;15.99;45.51
6389;BME280;3227;42.654;23.360;2022-10-17T09:28:13;95950.06;;;16.41;45.63
6389;BME280;3227;42.654;23.360;2022-10-17T09:30:43;95938.84;;;16.33;44.53
6389;BME280;3227;42.654;23.360;2022-10-17T09:33:14;95944.88;;;16.24;44.76
6389;BME280;3227;42.654;23.360;2022-10-17T09:35:42;95934.56;;;16.21;44.74
6389;BME280;3227;42.654;23.360;2022-10-17T09:38:17;95937.16;;;16.38;45.44
6389;BME280;3227;42.654;23.360;2022-10-17T09:40:45;95940.59;;;16.46;43.61
6389;BME280;3227;42.654;23.360;2022-10-17T09:43:15;95949.22;;;16.53;42.41
6389;BME280;3227;42.654;23.360;2022-10-17T09:45:48;95944.03;;;16.45;43.29
6389;BME280;3227;42.654;23.360;2022-10-17T09:48:25;95944.03;;;16.18;43.13
6389;BME280;3227;42.654;23.360;2022-10-17T09:50:55;95898.31;;;16.08;43.65
6389;BME280;3227;42.654;23.360;2022-10-17T09:53:25;95938.00;;;16.40;43.55
6389;BME280;3227;42.654;23.360;2022-10-17T09:55:57;95938.88;;;16.36;43.01
6389;BME280;3227;42.654;23.360;2022-10-17T09:58:39;95938.00;;;16.19;42.03
6389;BME280;3227;42.654;23.360;2022-10-17T10:01:15;95906.97;;;16.11;40.28
6389;BME280;3227;42.654;23.360;2022-10-17T10:03:44;95931.97;;;16.38;41.09
6389;BME280;3227;42.654;23.360;2022-10-17T10:06:13;95922.47;;;16.45;42.45
6389;BME280;3227;42.654;23.360;2022-10-17T10:08:48;95898.34;;;16.26;41.75
6389;BME280;3227;42.654;23.360;2022-10-17T10:11:17;95917.31;;;16.35;40.74
6389;BME280;3227;42.654;23.360;2022-10-17T10:13:46;95886.28;;;16.11;41.70
6389;BME280;3227;42.654;23.360;2022-10-17T10:16:19;95867.31;;;16.00;41.17
6389;BME280;3227;42.654;23.360;2022-10-17T10:18:49;95913.00;;;16.42;40.32
6389;BME280;3227;42.654;23.360;2022-10-17T10:21:18;95883.69;;;16.28;40.69
6389;BME280;3227;42.654;23.360;2022-10-17T10:24:02;95878.50;;;16.32;39.58
6389;BME280;3227;42.654;23.360;2022-10-17T10:26:33;95914.69;;;16.58;39.34
6389;BME280;3227;42.654;23.360;2022-10-17T10:29:06;95903.47;;;16.56;38.47
6389;BME280;3227;42.654;23.360;2022-10-17T10:31:44;95907.81;;;16.66;39.45
6389;BME280;3227;42.654;23.360;2022-10-17T10:34:17;95910.41;;;16.69;39.07
6389;BME280;3227;42.654;23.360;2022-10-17T10:36:52;95896.59;;;16.69;39.93
6389;BME280;3227;42.654;23.360;2022-10-17T10:39:43;95896.56;;;16.81;38.93
6389;BME280;3227;42.654;23.360;2022-10-17T10:42:24;95888.81;;;16.86;38.38
6389;BME280;3227;42.654;23.360;2022-10-17T10:44:54;95886.22;;;16.86;37.98
6389;BME280;3227;42.654;23.360;2022-10-17T10:47:25;95897.38;;;16.98;36.86
6389;BME280;3227;42.654;23.360;2022-10-17T10:50:08;95858.59;;;16.88;37.55
6389;BME280;3227;42.654;23.360;2022-10-17T10:52:45;95891.38;;;16.96;37.27
6389;BME280;3227;42.654;23.360;2022-10-17T10:55:23;95844.84;;;16.54;37.66
6389;BME280;3227;42.654;23.360;2022-10-17T11:00:36;95872.41;;;16.87;36.98
6389;BME280;3227;42.654;23.360;2022-10-17T11:03:14;95859.41;;;17.00;37.73
6389;BME280;3227;42.654;23.360;2022-10-17T11:05:49;95870.56;;;17.15;36.68
6389;BME280;3227;42.654;23.360;2022-10-17T11:08:22;95866.19;;;17.23;36.22
6389;BME280;3227;42.654;23.360;2022-10-17T11:10:59;95827.50;;;16.95;35.90
6389;BME280;3227;42.654;23.360;2022-10-17T11:13:35;95866.25;;;17.21;36.07
6389;BME280;3227;42.654;23.360;2022-10-17T11:16:17;95816.25;;;17.01;36.29
6389;BME280;3227;42.654;23.360;2022-10-17T11:18:51;95854.94;;;17.34;36.16
6389;BME280;3227;42.654;23.360;2022-10-17T11:21:27;95800.63;;;17.13;36.19
6389;BME280;3227;42.654;23.360;2022-10-17T11:24:00;95865.16;;;17.63;36.29
6389;BME280;3227;42.654;23.360;2022-10-17T11:26:31;95860.81;;;17.68;35.43
6389;BME280;3227;42.654;23.360;2022-10-17T11:29:03;95852.06;;;17.83;35.36
6389;BME280;3227;42.654;23.360;2022-10-17T11:31:35;95856.38;;;17.85;34.34
6389;BME280;3227;42.654;23.360;2022-10-17T11:34:08;95832.34;;;17.62;34.31
6389;BME280;3227;42.654;23.360;2022-10-17T11:36:42;95852.19;;;17.68;35.05
6389;BME280;3227;42.654;23.360;2022-10-17T11:39:13;95845.31;;;17.55;35.39
6389;BME280;3227;42.654;23.360;2022-10-17T11:41:45;95812.56;;;17.41;35.18
6389;BME280;3227;42.654;23.360;2022-10-17T11:44:19;95847.88;;;17.67;35.08
6389;BME280;3227;42.654;23.360;2022-10-17T11:46:54;95841.81;;;17.66;35.59
6389;BME280;3227;42.654;23.360;2022-10-17T11:49:27;95840.91;;;17.72;35.25
6389;BME280;3227;42.654;23.360;2022-10-17T11:52:04;95831.38;;;17.77;34.46
6389;BME280;3227;42.654;23.360;2022-10-17T11:54:39;95838.22;;;17.87;34.71
6389;BME280;3227;42.654;23.360;2022-10-17T11:57:25;95815.78;;;17.83;33.93
6389;BME280;3227;42.654;23.360;2022-10-17T12:00:05;95821.81;;;17.85;33.62
6389;BME280;3227;42.654;23.360;2022-10-17T12:02:41;95818.44;;;17.72;33.53
6389;BME280;3227;42.654;23.360;2022-10-17T12:05:19;95830.47;;;17.79;33.88
6389;BME280;3227;42.654;23.360;2022-10-17T12:07:53;95831.25;;;17.92;34.20
6389;BME280;3227;42.654;23.360;2022-10-17T12:10:30;95816.50;;;18.00;34.48
6389;BME280;3227;42.654;23.360;2022-10-17T12:19:20;95804.09;;;18.31;33.35
6389;BME280;3227;42.654;23.360;2022-10-17T12:21:56;95792.00;;;18.29;33.15
6389;BME280;3227;42.654;23.360;2022-10-17T12:24:33;95828.94;;;18.61;33.15
6389;BME280;3227;42.654;23.360;2022-10-17T12:27:35;95823.59;;;18.73;32.89
6389;BME280;3227;42.654;23.360;2022-10-17T12:30:05;95823.50;;;18.82;32.74
6389;BME280;3227;42.654;23.360;2022-10-17T12:32:33;95816.47;;;18.90;32.69
6389;BME280;3227;42.654;23.360;2022-10-17T12:35:00;95811.22;;;18.96;33.06
6389;BME280;3227;42.654;23.360;2022-10-17T12:38:13;95817.47;;;18.79;32.17
6389;BME280;3227;42.654;23.360;2022-10-17T12:40:53;95812.47;;;18.62;32.77
6389;BME280;3227;42.654;23.360;2022-10-17T12:43:51;95814.16;;;18.69;32.67
6389;BME280;3227;42.654;23.360;2022-10-17T12:46:44;95806.28;;;18.75;32.34
6389;BME280;3227;42.654;23.360;2022-10-17T12:49:39;95813.97;;;18.84;32.76
6389;BME280;3227;42.654;23.360;2022-10-17T12:52:24;95811.28;;;18.90;32.03
6389;BME280;3227;42.654;23.360;2022-10-17T12:54:57;95751.03;;;18.62;32.40
6389;BME280;3227;42.654;23.360;2022-10-17T12:57:31;95811.28;;;18.90;31.35
6389;BME280;3227;42.654;23.360;2022-10-17T13:00:02;95809.72;;;18.77;31.35
6389;BME280;3227;42.654;23.360;2022-10-17T13:02:30;95772.88;;;18.40;31.66
6389;BME280;3227;42.654;23.360;2022-10-17T13:05:05;95806.34;;;18.69;32.05
6389;BME280;3227;42.654;23.360;2022-10-17T13:07:33;95807.91;;;18.85;31.90
6389;BME280;3227;42.654;23.360;2022-10-17T13:10:02;95808.59;;;18.98;30.33
6389;BME280;3227;42.654;23.360;2022-10-17T13:12:33;95807.03;;;18.85;30.58
6389;BME280;3227;42.654;23.360;2022-10-17T13:15:04;95796.75;;;18.74;30.53
6389;BME280;3227;42.654;23.360;2022-10-17T13:17:33;95765.84;;;18.53;30.38
6389;BME280;3227;42.654;23.360;2022-10-17T13:20:01;95797.66;;;18.72;30.46
6389;BME280;3227;42.654;23.360;2022-10-17T13:22:30;95805.59;;;18.61;29.95
6389;BME280;3227;42.654;23.360;2022-10-17T13:25:06;95798.56;;;18.68;30.57
6389;BME280;3227;42.654;23.360;2022-10-17T13:27:35;95787.44;;;18.58;30.59
6389;BME280;3227;42.654;23.360;2022-10-17T13:30:21;95795.03;;;18.73;29.73
6389;BME280;3227;42.654;23.360;2022-10-17T13:32:48;95762.28;;;18.61;30.30
6389;BME280;3227;42.654;23.360;2022-10-17T13:35:21;95795.81;;;18.80;28.95
6389;BME280;3227;42.654;23.360;2022-10-17T13:37:48;95744.31;;;18.43;28.57
6389;BME280;3227;42.654;23.360;2022-10-17T13:40:17;95803.53;;;18.87;28.60
6389;BME280;3227;42.654;23.360;2022-10-17T13:42:46;95769.06;;;18.75;28.05
6389;BME280;3227;42.654;23.360;2022-10-17T13:45:18;95806.84;;;19.02;27.61
6389;BME280;3227;42.654;23.360;2022-10-17T13:47:45;95799.06;;;19.00;27.12